Terminal Aerodrome Forecast
Issued by NWS

Home | Current Version | Previous Version | Text Only | Print | Product List | Glossary On
Versions: 1 2 3 4 5 6 7 8 9 10 11 12 13 14 15 16 17 18 19
000
FTUS43 KTOP 241100
TAFFOE
TAF
KFOE 241120Z 2412/2512 23012KT P6SM -SHRA VCTS SCT035 OVC050CB
      TEMPO 2412/2413 VRB15G30KT 2SM TSRA OVC025CB
     FM241700 34014G20KT P6SM VCSH FEW025 BKN040
     FM242000 34016G23KT P6SM BKN100
     FM250100 28006KT P6SM SKC=

USA.gov is the U.S. government's official web portal to all federal, state and local government web resources and services.